createdAt,value
2018-01-12T00:01:57.401Z,18.60
2018-01-12T00:04:25.025Z,18.10
2018-01-12T00:06:52.698Z,21.77
2018-01-12T00:09:20.321Z,17.80
2018-01-12T00:11:48.186Z,17.30
2018-01-12T00:14:15.805Z,17.97
2018-01-12T00:16:43.702Z,18.77
2018-01-12T00:19:11.466Z,18.37
2018-01-12T00:21:39.141Z,18.30
2018-01-12T00:24:06.989Z,19.20
2018-01-12T00:26:34.754Z,17.43
2018-01-12T00:29:02.422Z,18.83
2018-01-12T00:31:30.078Z,19.10
2018-01-12T00:33:57.694Z,17.67
2018-01-12T00:36:25.503Z,18.85
2018-01-12T00:38:53.198Z,18.03
2018-01-12T00:41:20.838Z,18.10
2018-01-12T00:43:50.038Z,21.00
2018-01-12T00:46:18.537Z,18.20
2018-01-12T00:48:46.215Z,19.92
2018-01-12T00:51:13.894Z,20.53
2018-01-12T00:53:41.544Z,19.33
2018-01-12T00:56:09.222Z,18.05
2018-01-12T00:58:36.860Z,16.40
2018-01-12T01:01:04.518Z,15.05
2018-01-12T01:03:32.770Z,15.13
2018-01-12T01:06:01.837Z,15.80
2018-01-12T01:08:29.472Z,15.57
2018-01-12T01:10:57.283Z,16.10
2018-01-12T01:13:25.709Z,14.15
2018-01-12T01:15:53.683Z,14.00
2018-01-12T01:18:21.900Z,14.73
2018-01-12T01:20:49.524Z,14.43
2018-01-12T01:23:17.612Z,14.43
2018-01-12T01:25:45.935Z,14.20
2018-01-12T01:28:13.589Z,12.13
2018-01-12T01:30:41.262Z,12.95
2018-01-12T01:33:08.877Z,12.77
2018-01-12T01:35:36.532Z,12.20
2018-01-12T01:38:05.125Z,13.10
2018-01-12T01:40:33.526Z,12.97
2018-01-12T01:43:01.322Z,12.97
2018-01-12T01:45:28.974Z,12.73
2018-01-12T01:47:56.596Z,13.13
2018-01-12T01:50:24.255Z,12.57
2018-01-12T01:52:52.644Z,12.90
2018-01-12T01:55:21.094Z,13.75
2018-01-12T01:57:48.721Z,14.20
2018-01-12T02:00:16.376Z,13.18
2018-01-12T02:02:43.990Z,15.20
2018-01-12T02:05:12.478Z,16.33
2018-01-12T02:07:40.179Z,17.57
2018-01-12T02:10:07.796Z,17.63
2018-01-12T02:12:35.520Z,17.58
2018-01-12T02:15:03.138Z,17.87
2018-01-12T02:17:30.924Z,20.10
2018-01-12T02:19:58.621Z,20.45
2018-01-12T02:22:26.287Z,19.13
2018-01-12T02:24:53.909Z,19.87
2018-01-12T02:27:21.526Z,21.50
2018-01-12T02:29:49.181Z,22.27
2018-01-12T02:32:16.832Z,20.70
2018-01-12T02:34:45.253Z,23.45
2018-01-12T02:37:12.918Z,25.17
2018-01-12T02:39:40.790Z,25.65
2018-01-12T02:42:08.449Z,26.20
2018-01-12T02:44:36.113Z,25.93
2018-01-12T02:47:03.726Z,25.03
2018-01-12T02:49:32.147Z,27.60
2018-01-12T02:51:59.802Z,28.40
2018-01-12T02:54:27.426Z,25.40
2018-01-12T02:56:55.377Z,27.30
2018-01-12T02:59:23.803Z,25.10
2018-01-12T03:01:52.097Z,27.15
2018-01-12T03:04:19.956Z,28.87
2018-01-12T03:06:47.628Z,32.22
2018-01-12T03:09:15.393Z,30.20
2018-01-12T03:11:43.015Z,30.27
2018-01-12T03:14:10.669Z,31.73
2018-01-12T03:16:38.373Z,32.28
2018-01-12T03:19:06.025Z,31.92
2018-01-12T03:21:33.645Z,32.28
2018-01-12T03:24:01.837Z,32.13
2018-01-12T03:26:29.507Z,34.28
2018-01-12T03:28:57.408Z,35.40
2018-01-12T03:31:25.187Z,33.87
2018-01-12T03:33:53.056Z,35.80
2018-01-12T03:36:20.697Z,35.40
2018-01-12T03:38:48.317Z,36.80
2018-01-12T03:41:16.006Z,35.00
2018-01-12T03:43:43.621Z,36.03
2018-01-12T03:46:11.277Z,36.67
2018-01-12T03:48:38.928Z,35.37
2018-01-12T03:51:06.581Z,37.58
2018-01-12T03:53:34.202Z,38.90
2018-01-12T03:56:01.965Z,34.57
2018-01-12T03:58:29.625Z,38.22
2018-01-12T04:00:57.511Z,39.67
2018-01-12T04:03:25.328Z,35.80
2018-01-12T04:05:52.995Z,36.30
2018-01-12T04:08:20.621Z,34.83
2018-01-12T04:10:49.085Z,38.30
2018-01-12T04:13:17.453Z,36.33
2018-01-12T04:15:45.106Z,36.60
2018-01-12T04:18:13.537Z,37.97
2018-01-12T04:20:41.193Z,33.40
2018-01-12T04:23:08.812Z,35.03
2018-01-12T04:25:36.470Z,32.53
2018-01-12T04:28:04.850Z,33.50
2018-01-12T04:30:32.506Z,32.20
2018-01-12T04:33:00.174Z,32.40
2018-01-12T04:35:27.796Z,33.38
2018-01-12T04:37:56.000Z,33.00
2018-01-12T04:40:24.446Z,31.03
2018-01-12T04:42:52.074Z,30.67
2018-01-12T04:45:20.330Z,32.83
2018-01-12T04:47:48.713Z,30.17
2018-01-12T04:50:16.410Z,28.30
2018-01-12T04:52:44.045Z,30.03
2018-01-12T04:55:11.693Z,29.40
2018-01-12T04:57:40.121Z,31.70
2018-01-12T05:00:07.825Z,29.33
2018-01-12T05:02:36.575Z,28.63
2018-01-12T05:05:04.234Z,29.30
2018-01-12T05:07:32.493Z,27.92
2018-01-12T05:10:00.160Z,29.70
2018-01-12T05:12:27.921Z,28.40
2018-01-12T05:14:55.538Z,27.73
2018-01-12T05:17:23.857Z,27.85
2018-01-12T05:19:52.073Z,27.60
2018-01-12T05:22:20.463Z,26.92
2018-01-12T05:24:48.886Z,26.37
2018-01-12T05:27:16.550Z,25.90
2018-01-12T05:29:44.850Z,25.50
2018-01-12T05:32:13.181Z,25.75
2018-01-12T05:34:41.081Z,25.08
2018-01-12T05:37:09.420Z,26.00
2018-01-12T05:39:37.075Z,26.20
2018-01-12T05:42:04.763Z,25.70
2018-01-12T05:44:32.431Z,27.03
2018-01-12T05:47:00.224Z,29.53
2018-01-12T05:49:27.882Z,27.23
2018-01-12T05:51:55.549Z,27.50
2018-01-12T05:54:23.192Z,28.80
2018-01-12T05:56:50.817Z,29.67
2018-01-12T05:59:18.482Z,29.60
2018-01-12T06:01:57.937Z,26.90
2018-01-12T06:04:37.593Z,27.30
2018-01-12T06:07:05.250Z,30.17
2018-01-12T06:09:32.874Z,31.30
2018-01-12T06:12:00.537Z,30.00
2018-01-12T06:14:28.157Z,28.00
2018-01-12T06:16:55.778Z,30.13
2018-01-12T06:19:23.552Z,32.53
2018-01-12T06:21:51.169Z,33.17
2018-01-12T06:24:18.817Z,30.53
2018-01-12T06:26:46.436Z,33.13
2018-01-12T06:29:14.818Z,34.50
2018-01-12T06:31:42.499Z,30.73
2018-01-12T06:34:10.121Z,30.62
2018-01-12T06:36:37.792Z,30.07
2018-01-12T06:39:05.733Z,31.60
2018-01-12T06:41:33.349Z,31.50
2018-01-12T06:44:01.009Z,32.97
2018-01-12T06:46:28.716Z,30.97
2018-01-12T06:48:56.477Z,32.83
2018-01-12T06:51:24.093Z,32.45
2018-01-12T06:53:53.136Z,32.80
2018-01-12T06:56:20.916Z,34.37
2018-01-12T06:58:48.540Z,34.37
2018-01-12T07:01:16.211Z,31.90
2018-01-12T07:03:43.833Z,33.50
2018-01-12T07:06:11.450Z,32.58
2018-01-12T07:08:39.894Z,33.75
2018-01-12T07:11:07.513Z,32.85
2018-01-12T07:13:36.605Z,30.70
2018-01-12T07:16:04.301Z,31.87
2018-01-12T07:18:31.925Z,29.33
2018-01-12T07:21:11.359Z,32.77
2018-01-12T07:23:46.881Z,32.20
2018-01-12T07:26:14.541Z,33.97
2018-01-12T07:28:42.191Z,32.33
2018-01-12T07:31:11.093Z,35.43
2018-01-12T07:33:38.754Z,36.13
2018-01-12T07:36:07.111Z,34.50
2018-01-12T07:38:34.788Z,33.63
2018-01-12T07:41:02.414Z,32.42
2018-01-12T07:43:30.088Z,34.50
2018-01-12T07:45:57.711Z,33.93
2018-01-12T07:48:25.381Z,35.97
2018-01-12T07:50:53.066Z,32.40
2018-01-12T07:53:21.553Z,34.23
2018-01-12T07:55:49.176Z,36.70
2018-01-12T07:58:16.875Z,32.80
2018-01-12T08:00:50.137Z,30.97
2018-01-12T08:03:17.761Z,33.30
2018-01-12T08:05:45.414Z,34.92
2018-01-12T08:08:13.561Z,35.57
2018-01-12T08:10:41.243Z,32.13
2018-01-12T08:13:09.628Z,35.80
2018-01-12T08:15:38.250Z,34.42
2018-01-12T08:18:05.949Z,34.60
2018-01-12T08:20:33.722Z,31.80
2018-01-12T08:23:02.882Z,35.28
2018-01-12T08:25:31.402Z,36.40
2018-01-12T08:27:59.085Z,35.63
2018-01-12T08:30:26.923Z,34.23
2018-01-12T08:32:56.673Z,34.97
2018-01-12T08:35:24.289Z,35.25
2018-01-12T08:37:52.017Z,32.33
2018-01-12T08:40:21.049Z,32.42
2018-01-12T08:42:49.529Z,33.53
2018-01-12T08:45:17.493Z,32.00
2018-01-12T08:47:45.155Z,31.48
2018-01-12T08:50:12.781Z,33.83
2018-01-12T08:52:40.464Z,36.43
2018-01-12T08:55:09.122Z,35.05
2018-01-12T08:57:38.286Z,47.47
2018-01-12T09:00:06.881Z,34.70
2018-01-12T09:02:34.510Z,35.90
2018-01-12T09:05:02.390Z,32.47
2018-01-12T09:07:32.274Z,37.70
2018-01-12T09:09:59.893Z,34.10
2018-01-12T09:12:28.989Z,35.05
2018-01-12T09:14:56.704Z,37.40
2018-01-12T09:17:48.014Z,41.58
2018-01-12T09:20:19.005Z,33.37
2018-01-12T09:22:49.364Z,33.80
2018-01-12T09:25:25.606Z,34.80
2018-01-12T09:27:54.241Z,35.20
2018-01-12T09:30:22.668Z,35.00
2018-01-12T09:32:52.175Z,36.13
2018-01-12T09:35:20.445Z,35.90
2018-01-12T09:37:59.729Z,32.47
2018-01-12T09:40:37.771Z,39.85
2018-01-12T09:43:05.393Z,38.03
2018-01-12T09:45:33.862Z,36.33
2018-01-12T09:48:13.189Z,38.05
2018-01-12T09:50:42.778Z,37.35
2018-01-12T09:53:10.398Z,34.20
2018-01-12T09:55:38.054Z,37.60
2018-01-12T09:58:05.714Z,35.50
2018-01-12T10:00:40.231Z,36.92
2018-01-12T10:03:07.856Z,35.10
2018-01-12T10:05:35.492Z,36.85
2018-01-12T10:08:06.006Z,37.37
2018-01-12T10:10:35.684Z,39.40
2018-01-12T10:13:03.353Z,36.10
2018-01-12T10:15:31.511Z,38.13
2018-01-12T10:18:03.660Z,39.50
2018-01-12T10:20:36.029Z,37.00
2018-01-12T10:23:04.466Z,37.50
2018-01-12T10:25:32.110Z,37.90
2018-01-12T10:27:59.774Z,40.35
2018-01-12T10:31:03.695Z,35.53
2018-01-12T10:33:32.277Z,38.23
2018-01-12T10:36:00.645Z,33.50
2018-01-12T10:38:28.265Z,34.10
2018-01-12T10:41:14.108Z,37.07
2018-01-12T10:43:41.769Z,36.20
2018-01-12T10:46:29.341Z,35.33
2018-01-12T10:48:57.700Z,33.50
2018-01-12T10:51:42.173Z,36.57
2018-01-12T10:54:09.828Z,37.63
2018-01-12T10:56:38.208Z,36.03
2018-01-12T10:59:05.902Z,36.30
2018-01-12T11:01:33.888Z,37.45
2018-01-12T11:04:01.673Z,35.57
2018-01-12T11:06:29.346Z,33.60
2018-01-12T11:08:57.199Z,34.70
2018-01-12T11:11:25.769Z,38.35
2018-01-12T11:13:53.472Z,36.93
2018-01-12T11:16:21.408Z,38.50
2018-01-12T11:18:49.073Z,37.80
2018-01-12T11:21:16.744Z,37.77
2018-01-12T11:23:45.161Z,35.60
2018-01-12T11:26:13.073Z,36.28
2018-01-12T11:28:41.055Z,34.45
2018-01-12T11:31:10.201Z,32.05
2018-01-12T11:33:37.857Z,34.55
2018-01-12T11:36:05.535Z,35.10
2018-01-12T11:38:33.421Z,36.00
2018-01-12T11:41:01.077Z,32.63
2018-01-12T11:43:28.733Z,31.17
2018-01-12T11:45:56.394Z,35.57
2018-01-12T11:48:24.072Z,32.87
2018-01-12T11:50:51.706Z,34.30
2018-01-12T11:53:19.325Z,33.93
2018-01-12T11:55:46.996Z,33.47
2018-01-12T11:58:14.658Z,35.87
2018-01-12T12:00:43.117Z,30.17
2018-01-12T12:03:10.790Z,31.85
2018-01-12T12:05:38.406Z,29.90
2018-01-12T12:08:06.349Z,31.77
2018-01-12T12:10:34.990Z,32.90
2018-01-12T12:13:03.410Z,32.70
2018-01-12T12:15:31.041Z,32.40
2018-01-12T12:17:58.699Z,28.60
2018-01-12T12:20:26.323Z,32.20
2018-01-12T12:22:54.160Z,30.48
2018-01-12T12:25:21.773Z,30.37
2018-01-12T12:27:49.429Z,29.08
2018-01-12T12:30:17.049Z,30.97
2018-01-12T12:32:44.816Z,29.23
2018-01-12T12:35:12.438Z,31.90
2018-01-12T12:37:40.104Z,30.60
2018-01-12T12:40:07.765Z,29.77
2018-01-12T12:42:35.425Z,31.87
2018-01-12T12:45:03.089Z,30.07
2018-01-12T12:47:30.754Z,30.40
2018-01-12T12:49:58.369Z,30.87
2018-01-12T12:52:26.029Z,29.98
2018-01-12T12:54:54.414Z,29.57
2018-01-12T12:57:22.838Z,30.63
2018-01-12T12:59:50.831Z,30.63
2018-01-12T13:02:18.452Z,29.27
2018-01-12T13:04:46.123Z,29.73
2018-01-12T13:07:14.061Z,30.80
2018-01-12T13:09:41.683Z,29.60
2018-01-12T13:12:09.349Z,30.43
2018-01-12T13:14:37.093Z,26.90
2018-01-12T13:17:05.557Z,28.97
2018-01-12T13:19:33.320Z,27.17
2018-01-12T13:22:00.937Z,26.65
2018-01-12T13:24:28.762Z,26.17
2018-01-12T13:26:56.383Z,28.27
2018-01-12T13:29:24.037Z,25.98
2018-01-12T13:31:51.652Z,29.33
2018-01-12T13:34:19.309Z,29.10
2018-01-12T13:36:46.990Z,27.30
2018-01-12T13:39:15.408Z,26.90
2018-01-12T13:41:43.330Z,25.45
2018-01-12T13:44:11.068Z,27.33
2018-01-12T13:46:38.776Z,23.83
2018-01-12T13:49:06.682Z,24.33
2018-01-12T13:51:34.338Z,22.67
2018-01-12T13:54:02.317Z,22.80
2018-01-12T13:56:29.985Z,23.93
2018-01-12T13:58:57.648Z,26.00
2018-01-12T14:01:26.770Z,27.57
2018-01-12T14:03:55.196Z,28.50
2018-01-12T14:06:22.861Z,26.87
2018-01-12T14:08:50.715Z,25.77
2018-01-12T14:11:18.383Z,27.23
2018-01-12T14:13:46.612Z,26.75
2018-01-12T14:16:14.825Z,27.37
2018-01-12T14:18:42.500Z,28.17
2018-01-12T14:21:10.157Z,25.77
2018-01-12T14:23:38.509Z,24.40
2018-01-12T14:26:06.214Z,24.30
2018-01-12T14:28:33.866Z,25.95
2018-01-12T14:31:01.486Z,26.00
2018-01-12T14:33:29.145Z,24.92
2018-01-12T14:35:57.370Z,25.10
2018-01-12T14:38:25.567Z,24.67
2018-01-12T14:40:53.489Z,23.17
2018-01-12T14:43:21.109Z,28.67
2018-01-12T14:45:48.735Z,23.93
2018-01-12T14:48:16.731Z,27.93
2018-01-12T14:50:45.165Z,31.90
2018-01-12T14:53:12.789Z,27.00
2018-01-12T14:55:40.449Z,24.90
2018-01-12T14:58:08.109Z,25.23
2018-01-12T15:00:35.726Z,27.33
2018-01-12T15:03:04.901Z,26.00
2018-01-12T15:05:32.521Z,24.40
2018-01-12T15:08:00.328Z,20.65
2018-01-12T15:10:28.557Z,24.58
2018-01-12T15:12:56.184Z,25.83
2018-01-12T15:15:24.050Z,26.80
2018-01-12T15:17:51.670Z,25.17
2018-01-12T15:20:19.326Z,24.48
2018-01-12T15:22:46.945Z,24.03
2018-01-12T15:25:15.363Z,18.17
2018-01-12T15:27:43.745Z,19.47
2018-01-12T15:30:11.400Z,23.40
2018-01-12T15:32:39.073Z,21.47
2018-01-12T15:35:06.690Z,23.80
2018-01-12T15:37:34.354Z,20.40
2018-01-12T15:40:02.009Z,21.23
2018-01-12T15:42:29.942Z,22.30
2018-01-12T15:44:57.606Z,24.57
2018-01-12T15:47:25.262Z,23.07
2018-01-12T15:49:52.910Z,22.50
2018-01-12T15:52:20.572Z,21.45
2018-01-12T15:54:48.981Z,19.70
2018-01-12T15:57:16.597Z,23.27
2018-01-12T15:59:44.358Z,21.83
2018-01-12T16:02:12.049Z,21.80
2018-01-12T16:04:39.799Z,18.87
2018-01-12T16:07:07.453Z,20.85
2018-01-12T16:09:35.074Z,21.27
2018-01-12T16:12:02.737Z,21.60
2018-01-12T16:14:30.389Z,20.35
2018-01-12T16:16:58.014Z,21.00
2018-01-12T16:19:25.843Z,22.67
2018-01-12T16:21:53.465Z,18.70
2018-01-12T16:24:21.429Z,21.48
2018-01-12T16:26:49.425Z,19.17
2018-01-12T16:29:17.136Z,19.15
2018-01-12T16:31:44.765Z,19.23
2018-01-12T16:34:12.418Z,17.95
2018-01-12T16:36:40.033Z,19.67
2018-01-12T16:39:07.716Z,20.12
2018-01-12T16:41:35.396Z,18.52
2018-01-12T16:44:03.068Z,19.07
2018-01-12T16:46:30.689Z,18.80
2018-01-12T16:48:58.353Z,18.85
2018-01-12T16:51:25.965Z,17.47
2018-01-12T16:53:53.822Z,20.95
2018-01-12T16:56:21.493Z,19.95
2018-01-12T16:58:50.048Z,19.30
2018-01-12T17:01:18.002Z,22.10
2018-01-12T17:03:45.628Z,20.73
2018-01-12T17:06:13.512Z,18.37
2018-01-12T17:08:41.125Z,20.93
2018-01-12T17:11:09.706Z,18.63
2018-01-12T17:13:37.397Z,20.02
2018-01-12T17:16:05.076Z,23.37
2018-01-12T17:18:32.701Z,20.42
2018-01-12T17:21:00.635Z,21.70
2018-01-12T17:23:29.297Z,19.83
2018-01-12T17:25:56.917Z,22.73
2018-01-12T17:28:25.346Z,20.52
2018-01-12T17:30:53.061Z,23.90
2018-01-12T17:33:21.490Z,20.37
2018-01-12T17:35:49.133Z,21.43
2018-01-12T17:38:17.744Z,20.73
2018-01-12T17:40:45.409Z,17.97
2018-01-12T17:43:13.082Z,17.75
2018-01-12T17:45:40.842Z,16.87
2018-01-12T17:48:08.513Z,19.35
2018-01-12T17:50:40.978Z,18.77
2018-01-12T17:53:09.867Z,22.40
2018-01-12T17:55:38.718Z,20.35
2018-01-12T17:58:07.163Z,20.53
2018-01-12T18:00:34.816Z,18.90
2018-01-12T18:03:03.256Z,19.00
2018-01-12T18:05:30.934Z,19.87
2018-01-12T18:07:58.592Z,20.52
2018-01-12T18:10:27.759Z,19.10
2018-01-12T18:12:55.436Z,19.43
2018-01-12T18:15:23.082Z,19.80
2018-01-12T18:17:50.749Z,19.65
2018-01-12T18:20:18.401Z,18.27
2018-01-12T18:22:46.941Z,19.63
2018-01-12T18:25:14.609Z,19.75
2018-01-12T18:27:43.335Z,20.85
2018-01-12T18:30:11.006Z,18.77
2018-01-12T18:32:39.461Z,19.15
2018-01-12T18:35:07.982Z,18.23
2018-01-12T18:37:35.993Z,21.30
2018-01-12T18:40:03.674Z,21.15
2018-01-12T18:42:31.457Z,20.47
2018-01-12T18:44:59.687Z,19.43
2018-01-12T18:47:27.336Z,20.13
2018-01-12T18:49:54.949Z,22.97
2018-01-12T18:52:22.577Z,19.90
2018-01-12T18:54:50.236Z,20.33
2018-01-12T18:57:17.849Z,21.10
2018-01-12T18:59:45.513Z,19.90
2018-01-12T19:02:14.293Z,21.60
2018-01-12T19:04:42.141Z,19.60
2018-01-12T19:07:10.679Z,22.00
2018-01-12T19:09:38.342Z,21.30
2018-01-12T19:12:05.971Z,19.87
2018-01-12T19:14:33.620Z,21.97
2018-01-12T19:17:01.289Z,20.07
2018-01-12T19:19:28.944Z,19.80
2018-01-12T19:21:56.602Z,20.27
2018-01-12T19:24:24.720Z,21.50
2018-01-12T19:26:52.630Z,21.60
2018-01-12T19:29:20.245Z,22.23
2018-01-12T19:31:47.904Z,20.80
2018-01-12T19:34:16.117Z,23.40
2018-01-12T19:36:43.729Z,20.63
2018-01-12T19:39:11.355Z,21.33
2018-01-12T19:41:39.018Z,22.80
2018-01-12T19:44:06.746Z,22.93
2018-01-12T19:46:34.733Z,21.20
2018-01-12T19:49:02.345Z,22.43
2018-01-12T19:51:29.996Z,21.58
2018-01-12T19:53:57.953Z,23.67
2018-01-12T19:56:25.609Z,21.13
2018-01-12T19:58:53.564Z,25.27
2018-01-12T20:01:21.394Z,19.95
2018-01-12T20:03:49.008Z,23.30
2018-01-12T20:06:16.834Z,24.33
2018-01-12T20:08:44.458Z,24.43
2018-01-12T20:11:12.840Z,23.20
2018-01-12T20:13:40.737Z,21.80
2018-01-12T20:16:08.584Z,22.83
2018-01-12T20:18:37.860Z,24.03
2018-01-12T20:21:05.497Z,21.07
2018-01-12T20:23:33.152Z,22.83
2018-01-12T20:26:02.458Z,23.23
2018-01-12T20:28:30.126Z,21.17
2018-01-12T20:30:57.741Z,23.45
2018-01-12T20:33:25.411Z,18.17
2018-01-12T20:35:53.797Z,21.62
2018-01-12T20:38:21.470Z,23.35
2018-01-12T20:40:49.852Z,24.58
2018-01-12T20:43:18.246Z,22.80
2018-01-12T20:45:45.953Z,24.02
2018-01-12T20:48:13.606Z,22.00
2018-01-12T20:50:41.222Z,25.20
2018-01-12T20:53:08.892Z,23.00
2018-01-12T20:55:36.542Z,24.67
2018-01-12T20:58:04.637Z,23.73
2018-01-12T21:00:32.777Z,23.90
2018-01-12T21:03:00.408Z,21.10
2018-01-12T21:05:29.212Z,24.92
2018-01-12T21:07:56.876Z,25.70
2018-01-12T21:10:24.501Z,22.97
2018-01-12T21:12:52.148Z,24.37
2018-01-12T21:15:19.808Z,23.50
2018-01-12T21:17:47.425Z,24.57
2018-01-12T21:20:15.949Z,19.77
2018-01-12T21:22:43.599Z,24.37
2018-01-12T21:25:11.473Z,22.60
2018-01-12T21:27:39.096Z,26.05
2018-01-12T21:30:06.915Z,22.77
2018-01-12T21:32:34.533Z,25.53
2018-01-12T21:35:02.201Z,23.27
2018-01-12T21:37:29.995Z,23.93
2018-01-12T21:39:58.337Z,25.70
2018-01-12T21:42:25.957Z,24.50
2018-01-12T21:44:53.625Z,21.83
2018-01-12T21:47:21.253Z,21.93
2018-01-12T21:49:48.921Z,22.00
2018-01-12T21:52:16.735Z,23.90
2018-01-12T21:54:44.390Z,22.52
2018-01-12T21:57:12.025Z,24.50
2018-01-12T21:59:40.450Z,24.50
2018-01-12T22:02:08.069Z,22.30
2018-01-12T22:04:35.723Z,22.27
2018-01-12T22:07:03.341Z,22.80
2018-01-12T22:09:30.995Z,21.73
2018-01-12T22:11:58.609Z,22.53
2018-01-12T22:14:27.032Z,19.58
2018-01-12T22:16:55.477Z,17.10
2018-01-12T22:19:23.093Z,22.40
2018-01-12T22:21:50.753Z,21.63
2018-01-12T22:24:18.433Z,23.70
2018-01-12T22:26:46.086Z,32.13
2018-01-12T22:29:13.701Z,25.23
2018-01-12T22:31:42.272Z,23.15
2018-01-12T22:34:09.888Z,24.98
2018-01-12T22:36:37.553Z,24.33
2018-01-12T22:39:05.187Z,20.23
2018-01-12T22:41:33.904Z,23.58
2018-01-12T22:44:02.290Z,19.95
2018-01-12T22:46:30.706Z,25.77
2018-01-12T22:48:58.373Z,23.40
2018-01-12T22:51:25.984Z,23.13
2018-01-12T22:53:54.407Z,22.10
2018-01-12T22:56:22.030Z,21.77
2018-01-12T22:58:50.465Z,25.63
2018-01-12T23:01:18.084Z,20.77
2018-01-12T23:03:45.746Z,19.47
2018-01-12T23:06:13.364Z,22.05
2018-01-12T23:08:41.029Z,22.37
2018-01-12T23:11:08.650Z,23.30
2018-01-12T23:13:36.272Z,23.35
2018-01-12T23:16:04.705Z,21.57
2018-01-12T23:18:32.393Z,23.50
2018-01-12T23:21:00.783Z,21.58
2018-01-12T23:23:29.203Z,20.77
2018-01-12T23:25:56.820Z,21.40
2018-01-12T23:28:25.246Z,20.10
2018-01-12T23:30:52.861Z,20.83
2018-01-12T23:33:21.279Z,21.70
2018-01-12T23:35:48.945Z,21.70
2018-01-12T23:38:16.569Z,19.60
2018-01-12T23:40:44.417Z,21.77
2018-01-12T23:43:12.832Z,20.93
2018-01-12T23:45:40.509Z,20.98
2018-01-12T23:48:08.162Z,19.87
2018-01-12T23:50:37.733Z,19.20
2018-01-12T23:53:06.062Z,20.30
2018-01-12T23:55:33.711Z,17.63
2018-01-12T23:58:02.118Z,20.80
